Time;durP1;ratioP1;P1;durP2;ratioP2;P2;SDS_P1;SDS_P2;PMS_P1;PMS_P2;Temp;Humidity;BMP_temperature;BMP_pressure;BME280_temperature;BME280_humidity;BME280_pressure;Samples;Min_cycle;Max_cycle;Signal;HPM_P1;HPM_P2
2023/12/30 00:01:34;;;;;;;;;2.00;2.00;;;;;9.82;100.00;101389.00;5031303;28;45456;-76
2023/12/30 00:04:00;;;;;;;;;3.00;3.00;;;;;10.00;100.00;101417.34;5040314;27;47763;-76
2023/12/30 00:06:25;;;;;;;;;3.00;3.00;;;;;10.02;100.00;101412.63;5036673;28;45508;-77
2023/12/30 00:08:51;;;;;;;;;2.67;2.67;;;;;9.61;100.00;101350.09;5039279;27;45376;-76
2023/12/30 00:11:16;;;;;;;;;4.33;2.33;;;;;9.12;100.00;101255.69;5037524;28;45373;-75
2023/12/30 00:13:41;;;;;;;;;3.00;3.00;;;;;9.30;100.00;101289.41;5040590;28;45544;-77
2023/12/30 00:16:06;;;;;;;;;4.67;2.33;;;;;9.74;100.00;101364.38;5038836;28;46002;-75
2023/12/30 00:18:32;;;;;;;;;3.00;3.00;;;;;9.79;100.00;101362.13;5039699;27;45349;-75
2023/12/30 00:20:58;;;;;;;;;3.67;3.67;;;;;10.14;100.00;101406.19;5038466;28;45405;-75
2023/12/30 00:23:23;;;;;;;;;3.33;3.33;;;;;10.07;100.00;101395.97;5031243;28;47759;-76
2023/12/30 00:25:49;;;;;;;;;5.00;3.67;;;;;9.98;100.00;101384.03;5035336;28;45446;-76
2023/12/30 00:28:14;;;;;;;;;5.00;3.00;;;;;9.87;100.00;101342.47;5034240;28;46911;-76
2023/12/30 00:30:39;;;;;;;;;5.33;2.00;;;;;10.08;100.00;101373.28;5039415;27;45471;-76
2023/12/30 00:33:05;;;;;;;;;5.00;3.00;;;;;9.79;100.00;101332.25;5034036;28;46687;-77
2023/12/30 00:35:30;;;;;;;;;3.00;3.00;;;;;9.57;100.00;101275.41;5040348;27;45345;-77
2023/12/30 00:37:56;;;;;;;;;3.67;2.67;;;;;9.54;100.00;101271.09;5034302;27;45382;-77
2023/12/30 00:40:21;;;;;;;;;1.00;1.00;;;;;10.28;100.00;101402.34;5040929;28;45283;-77
2023/12/30 00:42:46;;;;;;;;;4.00;3.00;;;;;10.29;100.00;101393.19;5033855;28;45299;-77
2023/12/30 00:45:12;;;;;;;;;3.67;2.67;;;;;9.91;100.00;101336.69;5038322;28;45450;-77
2023/12/30 00:47:37;;;;;;;;;2.00;2.00;;;;;9.98;100.00;101329.75;5034792;28;45414;-76
2023/12/30 00:50:03;;;;;;;;;5.00;2.00;;;;;10.31;100.00;101384.88;5038852;28;45315;-77
2023/12/30 00:52:28;;;;;;;;;2.33;2.33;;;;;9.94;100.00;101333.69;5027644;28;47262;-77
2023/12/30 00:54:53;;;;;;;;;3.33;3.33;;;;;10.23;100.00;101387.44;5036803;27;45333;-77
2023/12/30 00:57:19;;;;;;;;;3.67;2.00;;;;;9.85;100.00;101323.63;5037648;28;45280;-77
2023/12/30 00:59:44;;;;;;;;;4.67;2.67;;;;;8.97;100.00;101187.34;5038501;28;45577;-76
2023/12/30 01:02:10;;;;;;;;;4.67;2.67;;;;;9.70;100.00;101327.63;5044952;28;48195;-76
2023/12/30 01:04:35;;;;;;;;;4.00;3.33;;;;;10.03;100.00;101387.22;5039528;28;45409;-77
2023/12/30 01:07:00;;;;;;;;;2.67;2.00;;;;;9.64;100.00;101330.88;5032400;28;45971;-77
2023/12/30 01:09:25;;;;;;;;;4.00;2.00;;;;;9.67;100.00;101338.72;5036489;27;45430;-76
2023/12/30 01:11:51;;;;;;;;;2.67;2.67;;;;;9.79;100.00;101364.00;5036653;28;45397;-76
2023/12/30 01:14:16;;;;;;;;;5.67;3.33;;;;;10.00;100.00;101398.34;5039649;28;45578;-76
2023/12/30 01:16:41;;;;;;;;;2.67;1.00;;;;;9.98;100.00;101405.75;5035458;28;45502;-76
2023/12/30 01:19:07;;;;;;;;;6.33;4.00;;;;;9.13;100.00;101268.25;5033285;27;45607;-76
2023/12/30 01:21:33;;;;;;;;;3.33;2.67;;;;;9.33;100.00;101308.13;5037041;28;45452;-76
2023/12/30 01:23:58;;;;;;;;;2.00;2.00;;;;;9.62;100.00;101368.13;5033668;28;45405;-75
2023/12/30 01:26:24;;;;;;;;;5.00;2.33;;;;;8.98;100.00;101267.69;5035877;28;45260;-77
2023/12/30 01:28:49;;;;;;;;;4.67;2.00;;;;;9.84;100.00;101408.75;5036245;28;45393;-76
2023/12/30 01:31:16;;;;;;;;;7.00;3.00;;;;;9.62;100.00;101378.97;5035104;28;45699;-76
2023/12/30 01:33:42;;;;;;;;;4.00;4.00;;;;;9.46;100.00;101356.78;5036373;28;44759;-76
2023/12/30 01:36:08;;;;;;;;;4.33;3.00;;;;;9.85;100.00;101410.47;5037196;28;45349;-77
2023/12/30 01:38:33;;;;;;;;;3.33;2.00;;;;;9.78;100.00;101409.28;5035904;28;45220;-77
2023/12/30 01:40:59;;;;;;;;;2.67;1.00;;;;;9.68;100.00;101384.75;5035847;28;47094;-77
2023/12/30 01:43:26;;;;;;;;;5.00;4.00;;;;;9.42;100.00;101358.06;5034629;28;45882;-77
2023/12/30 01:46:01;;;;;;;;;6.67;5.67;;;;;9.74;100.00;101414.06;5036313;27;45558;-77
2023/12/30 01:48:28;;;;;;;;;4.00;3.00;;;;;9.56;100.00;101388.47;5031667;28;45384;-77
2023/12/30 01:50:57;;;;;;;;;2.00;2.00;;;;;9.48;100.00;101385.53;5037371;27;46549;-77
2023/12/30 01:53:24;;;;;;;;;4.33;3.00;;;;;9.22;100.00;101355.09;5036723;27;45274;-76
2023/12/30 01:55:50;;;;;;;;;3.33;2.00;;;;;9.68;100.00;101430.88;5037268;28;48342;-77
2023/12/30 01:58:17;;;;;;;;;3.67;2.00;;;;;9.68;100.00;101419.16;5036129;28;45506;-77
2023/12/30 02:00:46;;;;;;;;;3.00;3.00;;;;;9.21;100.00;101380.47;5049964;28;45600;-76
2023/12/30 02:03:11;;;;;;;;;4.33;3.00;;;;;9.59;100.00;101434.31;5037241;27;45387;-76
2023/12/30 02:05:39;;;;;;;;;2.33;2.00;;;;;9.09;100.00;101340.81;5038528;28;45295;-76
2023/12/30 02:08:04;;;;;;;;;4.67;3.33;;;;;9.13;100.00;101391.09;5037546;27;45530;-76
2023/12/30 02:10:30;;;;;;;;;2.00;2.00;;;;;9.12;100.00;101389.38;5037644;27;47578;-76
2023/12/30 02:12:55;;;;;;;;;4.67;2.00;;;;;9.21;100.00;101409.44;5035807;28;45352;-76
2023/12/30 02:15:21;;;;;;;;;4.00;2.67;;;;;8.94;100.00;101352.91;5034928;28;45524;-76
2023/12/30 02:17:50;;;;;;;;;3.33;3.33;;;;;8.52;100.00;101290.34;5033883;28;46312;-76
2023/12/30 02:20:15;;;;;;;;;3.00;2.67;;;;;9.09;100.00;101394.19;5039548;27;45603;-76
2023/12/30 02:22:44;;;;;;;;;2.00;2.00;;;;;9.48;100.00;101455.19;5027956;28;45445;-76
2023/12/30 02:25:10;;;;;;;;;2.00;2.00;;;;;9.27;100.00;101436.97;5033063;28;45367;-76
2023/12/30 02:27:36;;;;;;;;;4.00;2.00;;;;;8.64;100.00;101322.84;5032886;28;45586;-76
2023/12/30 02:30:01;;;;;;;;;4.00;3.00;;;;;8.84;100.00;101358.19;5051968;28;46997;-76
2023/12/30 02:32:26;;;;;;;;;4.00;2.33;;;;;8.87;100.00;101385.06;5036575;27;46530;-76
2023/12/30 02:34:52;;;;;;;;;6.00;1.67;;;;;8.99;100.00;101400.31;5038489;28;45408;-76
2023/12/30 02:37:17;;;;;;;;;2.00;2.00;;;;;8.97;100.00;101398.75;5028870;28;45342;-75
2023/12/30 02:39:42;;;;;;;;;3.33;1.33;;;;;8.70;100.00;101338.59;5034090;28;48288;-76
2023/12/30 02:42:07;;;;;;;;;1.33;1.33;;;;;9.02;100.00;101409.19;5039241;27;45462;-76
2023/12/30 02:44:33;;;;;;;;;3.00;1.00;;;;;9.04;100.00;101397.25;5041601;28;45496;-76
2023/12/30 02:46:58;;;;;;;;;3.33;2.00;;;;;9.21;100.00;101437.41;5037704;28;45559;-76
2023/12/30 02:49:24;;;;;;;;;7.33;3.33;;;;;8.82;100.00;101373.72;5041737;27;46233;-76
2023/12/30 02:51:49;;;;;;;;;3.67;1.33;;;;;8.56;100.00;101335.13;5039304;28;45401;-76
2023/12/30 02:54:14;;;;;;;;;6.67;4.00;;;;;8.61;100.00;101337.50;5039533;28;45465;-76
2023/12/30 02:56:40;;;;;;;;;10.00;5.00;;;;;9.33;100.00;101452.72;5039420;28;45246;-76
2023/12/30 02:59:05;;;;;;;;;5.00;4.00;;;;;8.96;100.00;101415.97;5041401;28;45682;-76
2023/12/30 03:01:32;;;;;;;;;4.00;3.00;;;;;8.92;100.00;101403.66;5038632;27;45401;-75
2023/12/30 03:03:59;;;;;;;;;1.67;1.67;;;;;8.81;100.00;101384.69;5034158;27;45434;-76
2023/12/30 03:06:25;;;;;;;;;4.33;3.67;;;;;9.05;100.00;101436.94;5039494;28;45346;-76
2023/12/30 03:08:52;;;;;;;;;2.00;2.00;;;;;8.65;100.00;101340.81;5041140;27;46503;-76
2023/12/30 03:11:18;;;;;;;;;2.00;1.67;;;;;9.26;100.00;101458.75;5039416;28;45382;-76
2023/12/30 03:13:44;;;;;;;;;4.00;1.00;;;;;8.28;100.00;101296.78;5041429;28;45491;-76
2023/12/30 03:16:14;;;;;;;;;8.00;2.00;;;;;9.28;100.00;101454.06;5039188;28;45386;-76
2023/12/30 03:18:40;;;;;;;;;3.00;2.00;;;;;8.78;100.00;101380.34;5036015;28;46413;-76
2023/12/30 03:21:09;;;;;;;;;3.00;2.00;;;;;9.25;100.00;101448.91;5038934;28;45507;-76
2023/12/30 03:23:36;;;;;;;;;1.00;1.00;;;;;8.42;100.00;101321.81;5035244;28;45359;-76
2023/12/30 03:26:02;;;;;;;;;2.67;2.00;;;;;9.24;100.00;101467.00;5040109;28;45435;-76
2023/12/30 03:28:27;;;;;;;;;5.33;2.33;;;;;8.90;100.00;101403.78;5052856;27;45558;-76
2023/12/30 03:30:53;;;;;;;;;4.00;3.00;;;;;9.26;100.00;101478.59;5039060;28;45218;-76
2023/12/30 03:33:18;;;;;;;;;6.00;2.67;;;;;8.64;100.00;101360.75;5038035;27;45472;-76
2023/12/30 03:35:43;;;;;;;;;10.67;2.00;;;;;9.27;100.00;101472.22;5037387;28;45481;-76
2023/12/30 03:38:09;;;;;;;;;3.33;3.33;;;;;8.14;100.00;101284.34;5034987;28;45379;-76
2023/12/30 03:40:34;;;;;;;;;2.67;2.67;;;;;9.04;100.00;101437.94;5036725;28;59288;-76
2023/12/30 03:43:00;;;;;;;;;3.33;2.67;;;;;8.55;100.00;101368.63;5034758;28;45515;-76
2023/12/30 03:45:25;;;;;;;;;7.00;2.00;;;;;9.05;100.00;101452.34;5041510;27;45396;-76
2023/12/30 03:47:52;;;;;;;;;3.00;1.00;;;;;8.39;100.00;101365.41;5035096;28;45387;-76
2023/12/30 03:50:17;;;;;;;;;3.33;2.00;;;;;8.20;100.00;101306.38;5040406;28;45412;-76
2023/12/30 03:52:43;;;;;;;;;3.67;3.67;;;;;8.84;100.00;101416.97;5035211;28;45437;-76
2023/12/30 03:55:08;;;;;;;;;4.33;3.00;;;;;8.78;100.00;101412.88;5039157;28;45510;-76
2023/12/30 03:57:33;;;;;;;;;2.67;0.00;;;;;8.78;100.00;101418.28;5033865;28;46987;-77
2023/12/30 03:59:59;;;;;;;;;2.67;2.00;;;;;8.91;100.00;101435.28;5038493;28;45395;-75
2023/12/30 04:02:24;;;;;;;;;4.00;3.00;;;;;8.55;100.00;101382.16;5038027;28;45423;-75
2023/12/30 04:04:50;;;;;;;;;3.33;2.00;;;;;9.07;100.00;101461.19;5041689;27;45361;-75
2023/12/30 04:07:15;;;;;;;;;3.33;2.00;;;;;8.81;100.00;101406.34;5037174;28;46530;-75
2023/12/30 04:09:40;;;;;;;;;2.33;2.33;;;;;9.15;100.00;101470.44;5039541;27;55087;-75
2023/12/30 04:12:06;;;;;;;;;3.67;1.67;;;;;8.92;100.00;101423.47;5034617;28;45267;-75
2023/12/30 04:14:31;;;;;;;;;8.67;1.67;;;;;9.14;100.00;101463.28;5036884;28;45314;-75
2023/12/30 04:16:56;;;;;;;;;5.67;3.67;;;;;8.68;100.00;101389.34;5032803;28;47195;-76
2023/12/30 04:19:23;;;;;;;;;4.00;2.00;;;;;8.91;100.00;101440.72;5037381;28;45836;-76
2023/12/30 04:21:49;;;;;;;;;4.67;3.67;;;;;8.84;100.00;101425.09;5036924;28;45390;-75
2023/12/30 04:24:14;;;;;;;;;3.67;2.33;;;;;8.93;100.00;101448.72;5033809;28;45451;-75
2023/12/30 04:26:39;;;;;;;;;5.00;2.00;;;;;8.37;100.00;101340.28;5034991;27;46552;-75
2023/12/30 04:29:05;;;;;;;;;4.67;4.67;;;;;8.80;100.00;101420.88;5035059;28;65318;-76
2023/12/30 04:31:30;;;;;;;;;7.33;3.33;;;;;8.68;100.00;101392.91;5035024;28;45641;-76
2023/12/30 04:33:55;;;;;;;;;2.00;2.00;;;;;8.66;100.00;101391.31;5039821;28;45548;-75
2023/12/30 04:36:20;;;;;;;;;7.67;2.33;;;;;8.03;100.00;101304.13;5036218;27;45486;-76
2023/12/30 04:38:46;;;;;;;;;8.33;4.00;;;;;8.93;100.00;101463.16;5037449;28;45299;-76
2023/12/30 04:41:11;;;;;;;;;8.33;4.33;;;;;8.35;100.00;101368.47;5037055;28;45407;-76
2023/12/30 04:43:36;;;;;;;;;3.00;1.33;;;;;8.63;100.00;101402.38;5038865;28;45593;-76
2023/12/30 04:46:02;;;;;;;;;3.67;3.67;;;;;8.98;100.00;101468.22;5035707;28;47489;-76
2023/12/30 04:48:27;;;;;;;;;1.67;1.67;;;;;8.09;100.00;101321.72;5037449;28;45441;-76
2023/12/30 04:50:53;;;;;;;;;4.67;3.67;;;;;8.80;100.00;101426.31;5037679;28;45493;-76
2023/12/30 04:53:18;;;;;;;;;1.00;1.00;;;;;8.96;100.00;101459.34;5036093;27;45383;-76
2023/12/30 04:55:44;;;;;;;;;2.67;2.67;;;;;8.77;100.00;101431.94;5041858;28;46798;-75
2023/12/30 04:58:09;;;;;;;;;3.00;3.00;;;;;6.65;100.00;101072.34;5037062;27;45350;-76
2023/12/30 05:00:34;;;;;;;;;2.00;2.00;;;;;8.79;100.00;101430.00;5038830;28;45234;-75
2023/12/30 05:03:00;;;;;;;;;4.00;2.67;;;;;8.95;100.00;101460.31;5037569;27;45202;-77
2023/12/30 05:05:25;;;;;;;;;3.67;2.00;;;;;8.55;100.00;101395.69;5039301;28;45504;-75
2023/12/30 05:07:50;;;;;;;;;2.00;1.33;;;;;8.68;100.00;101422.72;5036714;27;45224;-76
2023/12/30 05:10:16;;;;;;;;;1.67;1.67;;;;;8.92;100.00;101455.13;5039409;28;47686;-76
2023/12/30 05:12:41;;;;;;;;;4.33;2.00;;;;;8.76;100.00;101423.00;5037310;27;45702;-76
2023/12/30 05:15:07;;;;;;;;;3.00;3.00;;;;;8.95;100.00;101449.50;5039297;28;50427;-75
2023/12/30 05:17:34;;;;;;;;;3.00;2.00;;;;;8.18;100.00;101327.28;5032437;28;45393;-76
2023/12/30 05:20:00;;;;;;;;;4.00;2.00;;;;;8.02;100.00;101280.75;5039469;28;45483;-77
2023/12/30 05:22:25;;;;;;;;;4.00;1.33;;;;;8.10;100.00;101293.69;5033490;27;45450;-76
2023/12/30 05:24:51;;;;;;;;;5.33;2.00;;;;;8.28;100.00;101316.59;5039072;28;46562;-76
2023/12/30 05:27:16;;;;;;;;;1.33;1.33;;;;;8.99;100.00;101440.13;5032217;28;45513;-76
2023/12/30 05:29:41;;;;;;;;;2.00;0.67;;;;;8.79;100.00;101403.75;5035056;28;45453;-76
2023/12/30 05:32:07;;;;;;;;;7.00;3.00;;;;;7.88;100.00;101244.94;5032747;28;45461;-77
2023/12/30 05:34:32;;;;;;;;;1.00;1.00;;;;;8.89;100.00;101414.75;5039280;28;45584;-76
2023/12/30 05:36:57;;;;;;;;;6.33;2.67;;;;;8.32;100.00;101318.13;5032752;28;45368;-76
2023/12/30 05:39:23;;;;;;;;;7.67;3.00;;;;;8.76;100.00;101395.03;5039412;28;45413;-76
2023/12/30 05:41:48;;;;;;;;;4.33;2.67;;;;;8.97;100.00;101444.81;5032156;28;45297;-76
2023/12/30 05:44:13;;;;;;;;;4.00;1.67;;;;;8.69;100.00;101375.69;5033251;28;58350;-76
2023/12/30 05:46:39;;;;;;;;;5.00;3.00;;;;;8.48;100.00;101340.28;5026713;28;45419;-76
2023/12/30 05:49:04;;;;;;;;;3.00;2.00;;;;;8.87;100.00;101405.88;5039167;28;45326;-76
2023/12/30 05:51:29;;;;;;;;;5.00;3.33;;;;;7.95;100.00;101248.88;5033780;27;45399;-76
2023/12/30 05:53:54;;;;;;;;;5.00;4.00;;;;;7.83;100.00;101223.63;5038534;28;45338;-76
2023/12/30 05:56:22;;;;;;;;;4.33;3.00;;;;;8.69;100.00;101377.53;5035857;28;51139;-76
2023/12/30 05:58:47;;;;;;;;;4.67;2.33;;;;;9.09;100.00;101437.53;5033608;28;45367;-76
2023/12/30 06:01:12;;;;;;;;;3.67;3.33;;;;;8.37;100.00;101310.50;5027480;28;45348;-76
2023/12/30 06:03:38;;;;;;;;;3.67;2.00;;;;;7.97;100.00;101246.91;5038679;28;45826;-77
2023/12/30 06:06:03;;;;;;;;;5.67;2.33;;;;;8.91;100.00;101385.69;5039446;28;45233;-76
2023/12/30 06:08:31;;;;;;;;;4.00;2.33;;;;;8.94;100.00;101407.09;5042047;27;45291;-77
2023/12/30 06:10:56;;;;;;;;;3.33;3.33;;;;;8.90;100.00;101403.78;5041311;28;45472;-77
2023/12/30 06:13:22;;;;;;;;;4.67;3.00;;;;;8.72;100.00;101369.16;5033274;28;49672;-76
2023/12/30 06:15:49;;;;;;;;;3.00;2.00;;;;;9.04;100.00;101407.25;5040541;27;45393;-75
2023/12/30 06:18:14;;;;;;;;;3.67;3.67;;;;;8.94;100.00;101391.72;5035918;28;45489;-75
2023/12/30 06:20:39;;;;;;;;;4.00;2.00;;;;;8.74;100.00;101351.78;5041475;28;45381;-75
2023/12/30 06:23:05;;;;;;;;;4.33;3.00;;;;;7.38;100.00;101136.09;5035569;28;45260;-75
2023/12/30 06:25:32;;;;;;;;;1.33;1.33;;;;;7.68;100.00;101181.53;5040246;28;45230;-75
2023/12/30 06:27:58;;;;;;;;;2.00;2.00;;;;;8.81;100.00;101373.84;5033547;28;45286;-76
2023/12/30 06:30:23;;;;;;;;;4.67;2.00;;;;;8.52;100.00;101319.28;5040438;28;45244;-77
2023/12/30 06:32:48;;;;;;;;;1.67;1.00;;;;;8.54;100.00;101337.13;5032756;28;46849;-77
2023/12/30 06:35:14;;;;;;;;;3.67;3.00;;;;;8.86;100.00;101396.00;5041209;27;46216;-75
2023/12/30 06:37:39;;;;;;;;;3.67;2.00;;;;;8.95;100.00;101403.41;5033704;28;45924;-75
2023/12/30 06:40:05;;;;;;;;;8.00;2.33;;;;;8.83;100.00;101385.44;5041526;28;45610;-75
2023/12/30 06:42:30;;;;;;;;;2.00;2.00;;;;;8.83;100.00;101390.84;5035469;28;46585;-75
2023/12/30 06:44:56;;;;;;;;;6.33;3.00;;;;;9.13;100.00;101439.88;5039909;28;45270;-75
2023/12/30 06:47:21;;;;;;;;;2.67;2.67;;;;;8.73;100.00;101376.28;5036042;28;45708;-75
2023/12/30 06:49:46;;;;;;;;;2.00;2.00;;;;;8.90;100.00;101400.22;5041704;28;45362;-75
2023/12/30 06:52:12;;;;;;;;;11.00;4.00;;;;;9.22;100.00;101449.13;5037651;27;45431;-74
2023/12/30 06:54:37;;;;;;;;;3.00;3.00;;;;;8.52;100.00;101335.50;5039993;28;45366;-75
2023/12/30 06:57:02;;;;;;;;;6.00;3.33;;;;;9.13;100.00;101420.06;5049999;27;57234;-75
2023/12/30 06:59:28;;;;;;;;;7.67;3.67;;;;;9.33;100.00;101451.88;5040276;28;45543;-76
2023/12/30 07:01:53;;;;;;;;;2.33;1.67;;;;;9.14;100.00;101409.06;5038521;28;45364;-77
2023/12/30 07:04:18;;;;;;;;;2.67;2.00;;;;;8.74;100.00;101348.22;5041222;28;45392;-77
2023/12/30 07:06:44;;;;;;;;;5.00;1.00;;;;;9.19;100.00;101423.16;5039009;28;45294;-75
2023/12/30 07:09:09;;;;;;;;;3.00;3.00;;;;;9.10;100.00;101391.34;5041417;27;45536;-77
2023/12/30 07:11:34;;;;;;;;;2.00;2.00;;;;;9.05;100.00;101382.72;5038354;28;46887;-75
2023/12/30 07:14:00;;;;;;;;;4.67;4.67;;;;;9.16;100.00;101400.81;5035270;28;45414;-76
2023/12/30 07:16:25;;;;;;;;;4.33;2.00;;;;;9.07;100.00;101390.72;5037955;28;45413;-75
2023/12/30 07:18:50;;;;;;;;;5.00;2.00;;;;;9.25;100.00;101409.09;5036683;28;45382;-75
2023/12/30 07:21:16;;;;;;;;;8.33;4.67;;;;;9.02;100.00;101376.69;5038176;28;53997;-75
2023/12/30 07:23:41;;;;;;;;;4.00;4.00;;;;;9.12;100.00;101389.38;5037640;28;45451;-77
2023/12/30 07:26:07;;;;;;;;;7.00;4.00;;;;;9.34;100.00;101440.03;5039259;28;46253;-75
2023/12/30 07:28:32;;;;;;;;;6.67;4.33;;;;;8.77;100.00;101351.53;5036844;28;45433;-77
2023/12/30 07:30:57;;;;;;;;;3.67;3.33;;;;;8.76;100.00;101354.38;5038891;27;45450;-77
2023/12/30 07:33:23;;;;;;;;;1.67;1.00;;;;;9.16;100.00;101414.38;5035219;27;45515;-77
2023/12/30 07:35:48;;;;;;;;;3.33;3.33;;;;;8.98;100.00;101404.00;5039263;28;45644;-77
2023/12/30 07:38:13;;;;;;;;;2.00;2.00;;;;;8.89;100.00;101380.38;5035803;28;45363;-77
2023/12/30 07:40:39;;;;;;;;;2.00;1.33;;;;;9.04;100.00;101407.25;5040444;27;45671;-77
2023/12/30 07:43:04;;;;;;;;;7.33;4.00;;;;;9.03;100.00;101424.50;5034655;28;45407;-77
2023/12/30 07:45:29;;;;;;;;;2.67;2.00;;;;;9.16;100.00;101434.22;5040506;28;45508;-77
2023/12/30 07:47:55;;;;;;;;;4.00;2.00;;;;;9.05;100.00;101420.69;5035903;28;45376;-77
2023/12/30 07:50:21;;;;;;;;;2.00;2.00;;;;;8.78;100.00;101383.06;5040200;28;46540;-78
2023/12/30 07:52:47;;;;;;;;;4.33;3.00;;;;;7.57;100.00;101170.72;5036203;27;45500;-79
2023/12/30 07:55:12;;;;;;;;;5.00;3.00;;;;;8.75;100.00;101371.63;5040061;28;50075;-77
2023/12/30 07:57:38;;;;;;;;;4.33;2.00;;;;;9.04;100.00;101412.66;5033739;28;45493;-77
2023/12/30 08:00:04;;;;;;;;;8.33;6.67;;;;;9.18;100.00;101434.13;5037983;28;46397;-76
2023/12/30 08:02:29;;;;;;;;;3.00;3.00;;;;;8.73;100.00;101349.19;5037959;27;45285;-76
2023/12/30 08:04:57;;;;;;;;;3.00;2.00;;;;;9.23;100.00;101438.16;5038241;27;45235;-76
2023/12/30 08:07:23;;;;;;;;;4.67;4.67;;;;;8.44;100.00;101295.50;5038476;28;45525;-77
2023/12/30 08:09:48;;;;;;;;;5.00;2.00;;;;;9.27;100.00;101444.22;5039407;27;45507;-76
2023/12/30 08:12:14;;;;;;;;;4.00;4.00;;;;;8.90;100.00;101373.97;5033888;28;45305;-76
2023/12/30 08:14:39;;;;;;;;;4.00;2.00;;;;;7.88;100.00;101209.75;5036403;28;45507;-78
2023/12/30 08:17:04;;;;;;;;;3.33;3.00;;;;;9.15;100.00;101418.94;5032713;28;45754;-76
2023/12/30 08:19:30;;;;;;;;;2.00;1.00;;;;;8.75;100.00;101347.25;5038434;28;46138;-77
2023/12/30 08:21:55;;;;;;;;;2.00;2.00;;;;;8.66;100.00;101345.25;5033219;28;54390;-77
2023/12/30 08:24:20;;;;;;;;;7.67;3.00;;;;;8.95;100.00;101379.88;5040008;28;45378;-77
2023/12/30 08:26:46;;;;;;;;;2.67;2.33;;;;;9.25;100.00;101422.66;5032789;28;45481;-77
2023/12/30 08:29:13;;;;;;;;;2.00;2.00;;;;;8.23;100.00;101236.75;5039870;28;45375;-77
2023/12/30 08:31:45;;;;;;;;;2.00;2.00;;;;;9.32;100.00;101418.47;5034215;27;45379;-76
2023/12/30 08:34:10;;;;;;;;;4.00;2.00;;;;;9.24;100.00;101388.38;5040019;28;45334;-75
2023/12/30 08:36:36;;;;;;;;;2.00;2.00;;;;;9.37;100.00;101402.66;5035484;27;45421;-75
2023/12/30 08:39:02;;;;;;;;;6.67;2.00;;;;;9.14;100.00;101359.41;5038669;27;45374;-75
2023/12/30 08:41:27;;;;;;;;;1.33;1.33;;;;;8.87;100.00;101314.59;5032759;28;45418;-75
2023/12/30 08:43:53;;;;;;;;;11.00;10.00;;;;;9.08;100.00;101321.97;5038460;28;45412;-75
2023/12/30 08:46:19;;;;;;;;;4.00;3.00;;;;;9.47;100.00;101355.81;5035909;28;45197;-76
2023/12/30 08:48:44;;;;;;;;;1.33;1.00;;;;;9.33;100.00;101327.97;5034927;28;46409;-75
2023/12/30 08:51:12;;;;;;;;;3.67;2.00;;;;;9.42;100.00;101333.63;5037707;28;45344;-76
2023/12/30 08:53:37;;;;;;;;;4.00;3.00;;;;;9.52;100.00;101337.28;5033888;28;45283;-75
2023/12/30 08:56:02;;;;;;;;;4.33;1.67;;;;;9.49;100.00;101326.72;5030071;28;45561;-75
2023/12/30 08:58:28;;;;;;;;;3.33;3.33;;;;;8.96;100.00;101245.25;5039639;28;45158;-76
2023/12/30 09:00:53;;;;;;;;;2.00;2.00;;;;;9.71;100.00;101364.63;5038527;28;45273;-76
2023/12/30 09:03:18;;;;;;;;;3.33;3.00;;;;;9.40;100.00;101308.50;5036635;28;45441;-75
2023/12/30 09:05:44;;;;;;;;;2.33;2.33;;;;;9.51;100.00;101324.72;5039734;28;45348;-75
2023/12/30 09:08:10;;;;;;;;;2.00;2.00;;;;;9.70;100.00;101362.91;5037967;27;46404;-75
2023/12/30 09:10:35;;;;;;;;;2.00;2.00;;;;;9.10;100.00;101276.63;5039761;28;45321;-75
2023/12/30 09:13:01;;;;;;;;;5.67;3.33;;;;;9.11;100.00;101272.94;5032510;28;45445;-74
2023/12/30 09:15:26;;;;;;;;;5.00;3.33;;;;;9.02;100.00;101246.59;5040109;28;45274;-76
2023/12/30 09:17:52;;;;;;;;;4.33;3.00;;;;;9.73;100.00;101368.06;5032075;28;59342;-77
2023/12/30 09:20:17;;;;;;;;;3.33;3.33;;;;;9.67;100.00;101347.75;5039975;28;45406;-77
2023/12/30 09:22:42;;;;;;;;;5.00;3.67;;;;;9.85;100.00;101375.19;5031955;28;45817;-75
2023/12/30 09:25:08;;;;;;;;;5.00;4.00;;;;;9.68;100.00;101332.31;5038292;28;45560;-76
2023/12/30 09:27:33;;;;;;;;;3.67;3.67;;;;;10.03;100.00;101376.34;5033949;28;46410;-75
2023/12/30 09:29:59;;;;;;;;;3.00;2.33;;;;;9.48;100.00;101277.03;5039224;28;45398;-75
2023/12/30 09:32:24;;;;;;;;;3.00;2.67;;;;;9.60;100.00;101285.97;5032193;28;45489;-75
2023/12/30 09:34:50;;;;;;;;;6.33;4.00;;;;;9.81;100.00;101327.59;5039261;28;45254;-76
2023/12/30 09:37:15;;;;;;;;;4.00;3.33;;;;;9.24;100.00;101252.81;5033162;28;45393;-76
2023/12/30 09:39:42;;;;;;;;;4.00;4.00;;;;;9.62;100.00;101313.84;5041138;28;61807;-76
2023/12/30 09:42:07;;;;;;;;;3.67;3.67;;;;;9.69;100.00;101334.91;5037228;28;45370;-75
2023/12/30 09:44:33;;;;;;;;;5.00;4.00;;;;;9.96;100.00;101372.44;5041480;28;45448;-75
2023/12/30 09:47:01;;;;;;;;;5.00;3.00;;;;;9.91;100.00;101374.69;5037927;28;45478;-75
2023/12/30 09:49:34;;;;;;;;;10.00;6.00;;;;;9.66;100.00;101329.72;5041578;28;45333;-76
2023/12/30 09:52:02;;;;;;;;;20.00;19.67;;;;;9.64;100.00;101314.59;5039710;28;45551;-76
2023/12/30 09:54:28;;;;;;;;;9.33;5.33;;;;;10.07;100.00;101382.41;5041909;28;45432;-75
2023/12/30 09:56:54;;;;;;;;;8.00;3.00;;;;;9.71;100.00;101307.66;5038926;28;46390;-77
2023/12/30 09:59:19;;;;;;;;;6.33;3.67;;;;;10.02;100.00;101352.91;5042325;28;45486;-77
2023/12/30 10:01:45;;;;;;;;;9.33;6.33;;;;;9.59;100.00;101273.41;5039584;28;45336;-76
2023/12/30 10:04:10;;;;;;;;;9.67;7.67;;;;;9.96;100.00;101318.13;5034150;28;45669;-77
2023/12/30 10:06:37;;;;;;;;;5.67;4.00;;;;;10.13;100.00;101339.28;5038706;28;45276;-76
2023/12/30 10:09:02;;;;;;;;;16.33;14.00;;;;;10.20;100.00;101330.66;5041101;27;45374;-76
2023/12/30 10:11:27;;;;;;;;;25.00;21.67;;;;;10.08;100.00;101303.50;5037974;27;45470;-77
2023/12/30 10:13:54;;;;;;;;;29.33;24.33;;;;;10.04;100.00;101288.50;5036635;28;45179;-76
2023/12/30 10:16:19;;;;;;;;;5.00;5.00;;;;;10.13;100.00;101311.28;5038973;28;45700;-76
2023/12/30 10:18:45;;;;;;;;;15.33;12.00;;;;;10.38;100.00;101339.91;5036752;28;45246;-76
2023/12/30 10:21:10;;;;;;;;;58.50;48.00;;;;;10.09;100.00;101291.66;5039754;28;46421;-76
2023/12/30 10:23:35;;;;;;;;;12.00;11.33;;;;;9.94;100.00;101246.81;5037764;28;45771;-76
2023/12/30 10:26:02;;;;;;;;;11.67;9.67;;;;;10.46;100.00;101310.22;5039330;27;46126;-76
2023/12/30 10:28:28;;;;;;;;;6.00;6.00;;;;;10.05;100.00;101229.63;5035748;28;45291;-76
2023/12/30 10:31:05;;;;;;;;;22.33;20.67;;;;;10.36;100.00;101255.00;5040002;28;45268;-76
2023/12/30 10:33:32;;;;;;;;;4.33;3.33;;;;;10.84;100.00;101334.91;5039177;28;45556;-76
2023/12/30 10:35:58;;;;;;;;;7.00;6.33;;;;;10.89;100.00;101342.63;5040095;28;45340;-77
2023/12/30 10:38:24;;;;;;;;;8.67;7.00;;;;;10.63;100.00;101292.44;5035547;28;45429;-76
2023/12/30 10:40:53;;;;;;;;;10.00;9.33;;;;;10.88;100.00;101313.75;5040868;28;45397;-76
2023/12/30 10:43:19;;;;;;;;;8.67;6.00;;;;;10.81;100.00;101302.53;5037805;28;45480;-80
2023/12/30 10:45:58;;;;;;;;;9.00;7.67;;;;;10.78;100.00;101291.97;5040536;28;45389;-76
2023/12/30 10:48:26;;;;;;;;;9.33;8.00;;;;;11.01;100.00;101308.06;5038847;28;45462;-76
2023/12/30 10:50:56;;;;;;;;;15.67;12.33;;;;;10.26;100.00;101162.59;5023463;28;45383;-77
2023/12/30 10:53:44;;;;;;;;;13.67;9.00;;;;;11.13;100.00;101309.69;5038527;28;45191;-77
2023/12/30 10:56:11;;;;;;;;;1.33;1.00;;;;;11.00;100.00;101290.03;5040078;27;46112;-77
2023/12/30 10:58:39;;;;;;;;;12.67;11.67;;;;;11.27;100.00;101293.84;5041287;28;45523;-77
2023/12/30 11:01:05;;;;;;;;;24.00;20.00;;;;;11.22;100.00;101251.75;5037459;28;45407;-76
2023/12/30 11:03:33;;;;;;;;;22.00;21.67;;;;;11.02;100.00;101198.31;5041098;28;45403;-78
2023/12/30 11:06:07;;;;;;;;;33.33;29.33;;;;;11.68;100.00;101286.47;5039277;28;46452;-77
2023/12/30 11:08:33;;;;;;;;;14.33;13.00;;;;;11.76;100.00;101273.03;5039999;27;45444;-76
2023/12/30 11:11:01;;;;;;;;;6.00;6.00;;;;;11.37;100.00;101209.53;5039980;28;45448;-76
2023/12/30 11:13:26;;;;;;;;;9.67;4.67;;;;;11.75;100.00;101275.88;5035207;28;45364;-76
2023/12/30 11:15:52;;;;;;;;;7.00;5.67;;;;;11.29;100.00;101187.59;5039847;28;46133;-76